Time;durP1;ratioP1;P1;durP2;ratioP2;P2;SDS_P1;SDS_P2;PMS_P1;PMS_P2;Temp;Humidity;BMP_temperature;BMP_pressure;BME280_temperature;BME280_humidity;BME280_pressure;Samples;Min_cycle;Max_cycle;Signal;HPM_P1;HPM_P2
2022/06/16 00:02:03;;;;;;;21.58;2.70;;;42.40;19.60;;;;;;5007640;28;20022;-64
2022/06/16 00:04:30;;;;;;;23.92;2.80;;;42.30;19.80;;;;;;5008639;28;20027;-64
2022/06/16 00:06:56;;;;;;;11.95;3.08;;;42.20;19.70;;;;;;4992311;28;20489;-65
2022/06/16 00:09:23;;;;;;;19.25;2.90;;;42.00;19.80;;;;;;5008322;28;20029;-64
2022/06/16 00:11:50;;;;;;;17.60;2.60;;;42.00;19.90;;;;;;5005853;28;20675;-64
2022/06/16 00:14:17;;;;;;;25.60;2.83;;;42.00;20.10;;;;;;5006283;28;20103;-62
2022/06/16 00:16:44;;;;;;;19.08;2.88;;;41.90;19.90;;;;;;4993490;28;20038;-64
2022/06/16 00:19:11;;;;;;;18.85;2.92;;;41.80;20.10;;;;;;5007144;28;20374;-64
2022/06/16 00:21:38;;;;;;;15.77;2.70;;;41.80;20.00;;;;;;5009711;28;20030;-64
2022/06/16 00:24:05;;;;;;;15.52;2.90;;;41.70;20.50;;;;;;5006892;28;20026;-65
2022/06/16 00:26:31;;;;;;;13.18;2.83;;;41.80;20.40;;;;;;4991911;28;20586;-64
2022/06/16 00:28:58;;;;;;;25.20;2.80;;;41.80;20.60;;;;;;5006919;28;20034;-63
2022/06/16 00:31:24;;;;;;;21.08;3.03;;;41.50;20.20;;;;;;5006701;28;20026;-66
2022/06/16 00:33:51;;;;;;;20.17;3.30;;;41.50;20.70;;;;;;4991949;28;20049;-63
2022/06/16 00:36:18;;;;;;;25.45;3.20;;;41.30;20.60;;;;;;4991509;28;20400;-65
2022/06/16 00:38:44;;;;;;;25.25;3.10;;;41.20;21.20;;;;;;5006695;28;20088;-63
2022/06/16 00:41:11;;;;;;;23.92;2.78;;;41.10;21.10;;;;;;5006445;28;20054;-63
2022/06/16 00:43:37;;;;;;;23.00;2.90;;;41.00;21.20;;;;;;5005323;28;20517;-64
2022/06/16 00:46:16;;;;;;;28.80;3.22;;;40.90;21.40;;;;;;4991614;28;20109;-64
2022/06/16 00:48:44;;;;;;;18.65;2.90;;;40.80;21.20;;;;;;5017237;28;20038;-64
2022/06/16 00:51:15;;;;;;;17.70;2.45;;;40.60;21.50;;;;;;4990560;28;20496;-64
2022/06/16 00:53:43;;;;;;;24.60;3.35;;;40.60;21.80;;;;;;4990544;28;20473;-64
2022/06/16 00:56:16;;;;;;;17.98;2.90;;;40.70;21.60;;;;;;5005063;28;20042;-64
2022/06/16 00:58:45;;;;;;;20.85;2.92;;;40.70;21.80;;;;;;5004937;28;20042;-66
2022/06/16 01:01:13;;;;;;;22.48;3.58;;;40.60;21.80;;;;;;5004699;28;20019;-64
2022/06/16 01:06:31;;;;;;;26.90;3.05;;;40.40;21.90;;;;;;4991177;28;20044;-65
2022/06/16 01:09:02;;;;;;;19.45;2.88;;;40.30;21.70;;;;;;5017665;28;20251;-65
2022/06/16 01:14:55;;;;;;;17.13;3.17;;;40.10;22.20;;;;;;4992529;28;20041;-62
2022/06/16 01:18:01;;;;;;;22.55;3.47;;;40.10;23.00;;;;;;4970505;28;20044;-64
2022/06/16 01:20:27;;;;;;;12.60;2.92;;;40.00;21.90;;;;;;5005064;28;20051;-64
2022/06/16 01:23:03;;;;;;;18.45;2.88;;;39.80;21.90;;;;;;5020155;28;20044;-65
2022/06/16 01:25:58;;;;;;;24.80;3.33;;;39.80;22.10;;;;;;4989957;28;20045;-65
2022/06/16 01:28:45;;;;;;;16.85;3.08;;;39.60;22.10;;;;;;5017953;28;20505;-64
2022/06/16 01:31:26;;;;;;;21.33;2.58;;;39.60;22.10;;;;;;5005764;28;20072;-64
2022/06/16 01:34:12;;;;;;;21.65;2.85;;;39.60;21.40;;;;;;5006329;28;20463;-64
2022/06/16 01:36:59;;;;;;;18.63;2.67;;;39.50;21.10;;;;;;5005362;28;20507;-64
2022/06/16 01:39:38;;;;;;;23.10;2.90;;;39.40;21.00;;;;;;5017335;28;20407;-64
2022/06/16 01:42:29;;;;;;;17.45;3.17;;;39.40;21.10;;;;;;5005917;28;20070;-62
2022/06/16 01:45:20;;;;;;;15.35;2.53;;;39.30;21.30;;;;;;4990689;28;20087;-63
2022/06/16 01:47:50;;;;;;;16.13;3.22;;;39.10;21.60;;;;;;4990510;28;20116;-64
2022/06/16 01:50:29;;;;;;;16.92;2.90;;;39.10;21.10;;;;;;4987609;28;20393;-65
2022/06/16 01:53:02;;;;;;;27.60;2.88;;;39.00;20.90;;;;;;4990154;28;20095;-65
2022/06/16 01:55:33;;;;;;;13.00;2.63;;;39.00;21.20;;;;;;5008098;28;20065;-64
2022/06/16 01:58:30;;;;;;;16.77;2.83;;;38.90;21.00;;;;;;5008987;28;20054;-65
2022/06/16 02:00:59;;;;;;;;;;;38.80;20.90;;;;;;4991131;28;20150;-64
2022/06/16 02:03:33;;;;;;;17.42;2.97;;;38.70;20.90;;;;;;5005958;28;20119;-64
2022/06/16 02:06:09;;;;;;;14.52;2.40;;;38.60;21.10;;;;;;5006711;28;20078;-64
2022/06/16 02:08:40;;;;;;;17.92;2.63;;;38.60;20.70;;;;;;5019483;28;20136;-65
2022/06/16 02:11:28;;;;;;;28.20;2.97;;;38.50;20.50;;;;;;5002671;28;20111;-64
2022/06/16 02:14:22;;;;;;;18.60;2.80;;;38.40;20.50;;;;;;5001800;28;20058;-65
2022/06/16 02:16:51;;;;;;;18.73;3.17;;;38.40;20.60;;;;;;4987591;28;20490;-64
2022/06/16 02:19:20;;;;;;;18.65;3.45;;;38.30;20.50;;;;;;4999469;28;20079;-64
2022/06/16 02:21:49;;;;;;;15.57;2.45;;;38.20;20.20;;;;;;5002971;28;20065;-63
2022/06/16 02:24:18;;;;;;;17.85;3.17;;;38.20;20.60;;;;;;5015420;28;20065;-64
2022/06/16 02:26:45;;;;;;;23.35;2.88;;;38.10;20.30;;;;;;5003830;28;20060;-63
2022/06/16 02:29:50;;;;;;;22.77;2.95;;;38.00;20.40;;;;;;5004378;28;20067;-62
2022/06/16 02:32:33;;;;;;;25.30;3.15;;;37.90;20.30;;;;;;4958447;28;21171;-64
2022/06/16 02:35:17;;;;;;;31.42;3.35;;;37.80;20.50;;;;;;4938396;28;20427;-63
2022/06/16 02:37:56;;;;;;;29.25;4.10;;;37.70;20.70;;;;;;4956562;28;20058;-63
2022/06/16 02:40:28;;;;;;;24.20;3.50;;;37.70;20.90;;;;;;4959742;28;20051;-64
2022/06/16 02:43:12;;;;;;;31.67;3.55;;;37.60;21.10;;;;;;4963232;28;20060;-64
2022/06/16 02:45:56;;;;;;;27.80;3.10;;;37.50;21.10;;;;;;4963370;28;20083;-63
2022/06/16 02:48:44;;;;;;;22.95;3.53;;;37.40;21.50;;;;;;4954425;28;20071;-65
2022/06/16 02:51:19;;;;;;;42.67;3.92;;;37.30;21.70;;;;;;4938090;28;20086;-67
2022/06/16 02:54:13;;;;;;;23.23;3.27;;;37.20;21.80;;;;;;4965918;28;20603;-65
2022/06/16 02:56:49;;;;;;;39.47;3.80;;;37.10;21.90;;;;;;4964773;28;20055;-62
2022/06/16 02:59:26;;;;;;;31.65;3.00;;;37.00;22.30;;;;;;4932640;28;20553;-65
2022/06/16 03:02:00;;;;;;;24.52;3.30;;;36.90;22.30;;;;;;4949237;28;20062;-65
2022/06/16 03:04:37;;;;;;;25.10;2.92;;;36.90;22.40;;;;;;4950361;28;20058;-65
2022/06/16 03:07:04;;;;;;;21.55;3.05;;;36.70;22.50;;;;;;4962197;28;20058;-64
2022/06/16 03:09:30;;;;;;;31.20;3.60;;;36.70;22.40;;;;;;4978999;28;20060;-63
2022/06/16 03:11:57;;;;;;;30.25;3.28;;;36.60;22.60;;;;;;4986868;28;20058;-64
2022/06/16 03:14:23;;;;;;;39.42;4.00;;;36.60;22.70;;;;;;4988675;28;20532;-64
2022/06/16 03:16:51;;;;;;;24.50;4.32;;;36.40;23.10;;;;;;4990154;28;20457;-64
2022/06/16 03:19:18;;;;;;;25.27;4.32;;;36.30;23.30;;;;;;5015544;28;20061;-64
2022/06/16 03:21:45;;;;;;;23.95;3.70;;;36.20;23.50;;;;;;5004856;28;20080;-64
2022/06/16 03:24:11;;;;;;;20.08;3.97;;;36.10;23.70;;;;;;5006566;28;20137;-65
2022/06/16 03:26:37;;;;;;;32.92;4.13;;;36.00;23.00;;;;;;5007796;28;20081;-65
2022/06/16 03:29:04;;;;;;;41.35;3.83;;;36.00;23.00;;;;;;5007771;28;20412;-65
2022/06/16 03:31:30;;;;;;;32.05;3.92;;;35.90;22.90;;;;;;5008198;28;20091;-66
2022/06/16 03:33:57;;;;;;;32.10;3.55;;;35.90;22.80;;;;;;5007854;28;20418;-65
2022/06/16 03:36:24;;;;;;;32.75;4.18;;;35.90;22.60;;;;;;5006828;28;20180;-65
2022/06/16 03:38:50;;;;;;;36.00;4.32;;;35.80;22.50;;;;;;5007710;28;20049;-65
2022/06/16 03:41:16;;;;;;;37.78;4.10;;;35.80;22.40;;;;;;4991383;28;20126;-65
2022/06/16 03:43:44;;;;;;;29.73;4.07;;;35.70;22.30;;;;;;5007815;28;20067;-64
2022/06/16 03:46:14;;;;;;;46.85;4.88;;;35.70;22.40;;;;;;5007057;28;20082;-63
2022/06/16 03:48:41;;;;;;;46.55;4.40;;;35.70;22.60;;;;;;5006053;28;20144;-65
2022/06/16 03:51:08;;;;;;;38.40;3.65;;;35.60;22.70;;;;;;4991161;28;20089;-66
2022/06/16 03:53:36;;;;;;;26.27;3.30;;;35.50;22.80;;;;;;5005611;28;20142;-64
2022/06/16 03:56:03;;;;;;;30.80;3.90;;;35.50;22.80;;;;;;4991989;28;20055;-63
2022/06/16 03:58:29;;;;;;;41.60;4.00;;;35.40;23.20;;;;;;4991009;28;20096;-64
2022/06/16 04:00:56;;;;;;;38.33;4.22;;;35.30;23.10;;;;;;5004106;28;20076;-64
2022/06/16 04:06:09;;;;;;;45.45;4.82;;;35.20;23.20;;;;;;5004865;28;20444;-64
2022/06/16 04:08:38;;;;;;;42.30;3.90;;;35.10;23.10;;;;;;4991023;28;20144;-64
2022/06/16 04:11:26;;;;;;;35.15;3.70;;;35.00;22.90;;;;;;4991674;28;20083;-63
2022/06/16 04:13:52;;;;;;;44.78;5.13;;;35.00;23.40;;;;;;5000926;28;20069;-65
2022/06/16 04:16:19;;;;;;;57.80;4.63;;;34.90;23.20;;;;;;5015086;28;20425;-62
2022/06/16 04:18:46;;;;;;;39.38;3.85;;;34.80;23.70;;;;;;4992158;28;20065;-67
2022/06/16 04:21:13;;;;;;;46.33;4.53;;;34.80;23.90;;;;;;4991492;28;20110;-65
2022/06/16 04:23:40;;;;;;;42.22;4.68;;;34.70;25.00;;;;;;4989393;28;20071;-65
2022/06/16 04:26:07;;;;;;;42.75;5.20;;;34.50;24.50;;;;;;5007030;28;20084;-64
2022/06/16 04:28:33;;;;;;;52.30;5.20;;;34.40;25.00;;;;;;5005670;28;20407;-65
2022/06/16 04:31:00;;;;;;;51.38;6.85;;;34.40;24.90;;;;;;5006700;28;20089;-66
2022/06/16 04:33:27;;;;;;;48.33;6.25;;;34.20;25.20;;;;;;5005630;28;20107;-63
2022/06/16 04:35:55;;;;;;;58.70;7.50;;;34.20;25.10;;;;;;5006663;28;20229;-63
2022/06/16 04:38:21;;;;;;;67.07;7.95;;;34.10;24.80;;;;;;5005484;28;20078;-65
2022/06/16 04:40:47;;;;;;;50.45;6.72;;;34.00;24.80;;;;;;5016288;28;20598;-66
2022/06/16 04:43:15;;;;;;;63.45;7.60;;;34.00;25.60;;;;;;4990171;28;20072;-67
2022/06/16 04:45:42;;;;;;;63.80;7.70;;;33.90;25.40;;;;;;5005190;28;20102;-68
2022/06/16 04:48:09;;;;;;;64.25;9.25;;;33.80;25.60;;;;;;5003388;28;20071;-66
2022/06/16 04:50:37;;;;;;;54.58;8.90;;;33.70;24.90;;;;;;4990570;28;20103;-66
2022/06/16 04:53:04;;;;;;;40.22;7.95;;;33.70;24.90;;;;;;4990951;28;20500;-64
2022/06/16 04:55:31;;;;;;;40.92;6.90;;;33.70;24.40;;;;;;5010023;28;20431;-64
2022/06/16 04:57:58;;;;;;;37.50;6.38;;;33.70;24.40;;;;;;5020776;28;20066;-65
2022/06/16 05:00:27;;;;;;;39.20;6.15;;;33.60;24.90;;;;;;5017363;28;20085;-66
2022/06/16 05:02:54;;;;;;;44.75;7.40;;;33.50;24.50;;;;;;5007643;28;20070;-66
2022/06/16 05:05:20;;;;;;;40.83;6.82;;;33.50;24.20;;;;;;5001341;28;20136;-65
2022/06/16 05:07:47;;;;;;;55.25;7.03;;;33.40;24.20;;;;;;5007120;28;20079;-65
2022/06/16 05:10:13;;;;;;;54.95;7.20;;;33.40;24.30;;;;;;5004849;28;20121;-63
2022/06/16 05:12:40;;;;;;;62.22;7.07;;;33.40;24.50;;;;;;5002501;28;20087;-63
2022/06/16 05:15:07;;;;;;;54.83;7.97;;;33.40;25.40;;;;;;5015149;28;20126;-62
2022/06/16 05:17:33;;;;;;;63.72;8.13;;;33.30;24.60;;;;;;5002668;28;20087;-61
2022/06/16 05:20:00;;;;;;;55.55;6.82;;;33.30;24.80;;;;;;5005808;28;20098;-61
2022/06/16 05:22:26;;;;;;;63.38;6.82;;;33.30;24.40;;;;;;4991404;28;20563;-62
2022/06/16 05:24:54;;;;;;;56.78;6.45;;;33.30;24.20;;;;;;4994124;28;20549;-59
2022/06/16 05:27:21;;;;;;;56.05;6.13;;;33.30;24.20;;;;;;4990310;28;20535;-62
2022/06/16 05:29:47;;;;;;;45.45;5.93;;;33.30;24.10;;;;;;4993520;28;20409;-61
2022/06/16 05:32:13;;;;;;;49.28;5.70;;;33.30;24.30;;;;;;5004816;28;20417;-61
2022/06/16 05:34:42;;;;;;;62.72;6.70;;;33.30;25.20;;;;;;4990373;28;20088;-64
2022/06/16 05:37:08;;;;;;;54.72;10.25;;;33.30;25.10;;;;;;5013278;28;20124;-63
2022/06/16 05:39:34;;;;;;;39.65;7.43;;;33.10;25.40;;;;;;4990925;28;20110;-62
2022/06/16 05:42:09;;;;;;;49.55;6.20;;;33.20;24.90;;;;;;5011696;28;20087;-63
2022/06/16 05:44:37;;;;;;;38.58;4.80;;;33.20;24.10;;;;;;5004848;28;20559;-66
2022/06/16 05:47:08;;;;;;;33.53;4.68;;;33.20;23.50;;;;;;5007913;28;20074;-63
2022/06/16 05:49:38;;;;;;;36.50;4.15;;;33.20;23.60;;;;;;5019578;28;20111;-64
2022/06/16 05:52:11;;;;;;;21.63;4.22;;;33.20;23.20;;;;;;5022882;28;20075;-64
2022/06/16 05:54:37;;;;;;;22.27;4.32;;;33.20;23.50;;;;;;4989255;28;20081;-64
2022/06/16 05:57:04;;;;;;;26.55;3.80;;;33.10;23.40;;;;;;5004617;28;20078;-64
2022/06/16 05:59:31;;;;;;;30.45;4.35;;;33.10;23.10;;;;;;5010075;28;20067;-65
2022/06/16 06:01:57;;;;;;;29.30;4.13;;;33.10;23.10;;;;;;4990461;28;20473;-64
2022/06/16 06:04:24;;;;;;;42.50;4.68;;;33.00;23.10;;;;;;5004615;28;20168;-65
2022/06/16 06:06:51;;;;;;;31.70;4.00;;;33.00;22.90;;;;;;4994677;28;20157;-63
2022/06/16 06:17:37;;;;;;;43.03;4.68;;;32.80;23.40;;;;;;5000708;28;20114;-64
2022/06/16 06:20:04;;;;;;;40.35;5.47;;;32.80;23.10;;;;;;4993314;28;20432;-63
2022/06/16 06:22:31;;;;;;;46.58;6.07;;;32.70;23.10;;;;;;5016561;28;20083;-63
2022/06/16 06:24:58;;;;;;;42.38;6.28;;;32.60;22.80;;;;;;4998039;28;20067;-63
2022/06/16 06:27:36;;;;;;;35.80;6.47;;;32.60;22.90;;;;;;5004149;28;20522;-64
2022/06/16 06:30:12;;;;;;;59.50;8.02;;;32.60;23.00;;;;;;4989994;28;20069;-63
2022/06/16 06:32:39;;;;;;;43.90;7.22;;;32.60;23.20;;;;;;5018323;28;20100;-62
2022/06/16 06:35:05;;;;;;;36.58;7.05;;;32.50;23.50;;;;;;5006395;28;20077;-62
2022/06/16 06:37:32;;;;;;;48.60;8.00;;;32.40;23.50;;;;;;5008334;28;20068;-63
2022/06/16 06:39:59;;;;;;;36.13;6.95;;;32.30;25.20;;;;;;4988258;28;20067;-63
2022/06/16 06:42:25;;;;;;;25.08;5.95;;;32.10;25.20;;;;;;5005857;28;20062;-64
2022/06/16 06:44:52;;;;;;;33.92;6.00;;;32.10;24.80;;;;;;5004613;28;20087;-61
2022/06/16 06:47:24;;;;;;;26.10;5.85;;;32.10;25.20;;;;;;5005489;28;20122;-62
2022/06/16 06:49:51;;;;;;;26.20;5.60;;;32.00;25.20;;;;;;5005872;28;20468;-64
2022/06/16 06:52:18;;;;;;;17.10;4.20;;;32.00;25.60;;;;;;4994345;28;20078;-64
2022/06/16 06:54:45;;;;;;;24.17;4.32;;;31.90;26.00;;;;;;5018060;28;20074;-64
2022/06/16 06:57:14;;;;;;;18.35;3.70;;;31.90;26.50;;;;;;5007686;28;20072;-64
2022/06/16 06:59:41;;;;;;;24.23;4.15;;;31.90;27.20;;;;;;5008504;28;20095;-63
2022/06/16 07:02:11;;;;;;;20.73;4.30;;;31.80;27.50;;;;;;5007714;28;20421;-65
2022/06/16 07:04:40;;;;;;;27.92;3.67;;;31.70;28.20;;;;;;4995908;28;20083;-66
2022/06/16 07:07:12;;;;;;;24.20;4.18;;;31.70;28.50;;;;;;5021130;28;20522;-64
2022/06/16 07:09:38;;;;;;;25.67;4.10;;;31.60;29.10;;;;;;5008131;28;20550;-64
2022/06/16 07:12:13;;;;;;;22.65;3.88;;;31.50;28.70;;;;;;5013392;28;20467;-65
2022/06/16 07:14:43;;;;;;;19.98;4.20;;;31.40;30.00;;;;;;4998380;28;20090;-66
2022/06/16 07:17:10;;;;;;;21.80;4.00;;;31.40;29.50;;;;;;5007598;28;20076;-64
2022/06/16 07:19:37;;;;;;;15.90;3.75;;;31.30;30.50;;;;;;5016019;28;20077;-63
2022/06/16 07:22:05;;;;;;;24.90;4.82;;;31.30;29.80;;;;;;5007983;28;20196;-64
2022/06/16 07:24:32;;;;;;;26.45;4.68;;;31.20;30.00;;;;;;5008726;28;20077;-66
2022/06/16 07:26:59;;;;;;;23.88;4.70;;;31.20;30.10;;;;;;5004457;28;20079;-65
2022/06/16 07:29:26;;;;;;;23.25;5.22;;;31.20;30.30;;;;;;4992786;28;20438;-64
2022/06/16 07:31:55;;;;;;;13.27;4.05;;;31.20;29.80;;;;;;4993250;28;20085;-64
2022/06/16 07:34:21;;;;;;;28.30;4.72;;;31.10;29.90;;;;;;5006061;28;20177;-64
2022/06/16 07:36:48;;;;;;;22.83;4.40;;;30.90;30.40;;;;;;5007798;28;20117;-63
2022/06/16 07:39:14;;;;;;;16.55;5.25;;;30.90;30.40;;;;;;4992943;28;20093;-64
2022/06/16 07:41:42;;;;;;;25.63;5.28;;;30.70;31.60;;;;;;5020995;28;20085;-66
2022/06/16 07:44:11;;;;;;;29.25;4.45;;;30.60;31.20;;;;;;4999604;28;20089;-63
2022/06/16 07:46:39;;;;;;;22.95;5.28;;;30.60;30.90;;;;;;5012069;28;20077;-63
2022/06/16 07:49:07;;;;;;;21.95;4.63;;;30.50;31.60;;;;;;4995071;28;20074;-64
2022/06/16 07:51:37;;;;;;;24.95;4.60;;;30.60;31.50;;;;;;5011010;28;20076;-64
2022/06/16 07:54:04;;;;;;;20.98;4.32;;;30.60;32.20;;;;;;4994958;28;20088;-65
2022/06/16 07:56:30;;;;;;;22.13;4.53;;;30.60;31.20;;;;;;5006974;28;20559;-65
2022/06/16 07:58:57;;;;;;;22.25;5.03;;;30.50;32.40;;;;;;5002827;28;20076;-65
2022/06/16 08:01:23;;;;;;;23.15;4.43;;;30.40;31.00;;;;;;5007236;28;20063;-65
2022/06/16 08:03:50;;;;;;;26.58;4.90;;;30.30;32.00;;;;;;5007335;28;20172;-65
2022/06/16 08:06:20;;;;;;;25.65;4.78;;;30.40;32.30;;;;;;5020178;28;20084;-64
2022/06/16 08:08:46;;;;;;;26.02;4.65;;;30.40;31.60;;;;;;5007196;28;20084;-65
2022/06/16 08:13:59;;;;;;;20.92;4.70;;;30.20;32.20;;;;;;4992247;28;20092;-63
2022/06/16 08:16:27;;;;;;;30.63;4.53;;;30.30;32.70;;;;;;5007656;28;20078;-64
2022/06/16 08:18:53;;;;;;;15.25;3.92;;;30.30;32.50;;;;;;5005308;28;20594;-63
2022/06/16 08:21:20;;;;;;;25.15;4.40;;;30.20;32.30;;;;;;4991697;28;20080;-64
2022/06/16 08:23:46;;;;;;;23.00;5.53;;;30.20;33.00;;;;;;5006673;28;20151;-64
2022/06/16 08:26:12;;;;;;;19.92;3.85;;;30.20;33.20;;;;;;5005195;28;20559;-63
2022/06/16 08:28:39;;;;;;;38.63;5.00;;;30.20;32.30;;;;;;5006068;28;20100;-64
2022/06/16 08:31:07;;;;;;;22.85;5.28;;;30.10;32.20;;;;;;5006839;28;20092;-63
2022/06/16 08:33:34;;;;;;;23.67;5.70;;;30.00;33.20;;;;;;4990129;28;20093;-64
2022/06/16 08:36:01;;;;;;;30.98;5.90;;;29.90;32.90;;;;;;4991447;28;20182;-63
2022/06/16 08:38:27;;;;;;;27.95;5.55;;;29.70;33.30;;;;;;5006645;28;20084;-64
2022/06/16 08:41:13;;;;;;;20.42;4.80;;;29.50;37.20;;;;;;5006647;28;20943;-64
2022/06/16 08:44:27;;;;;;;15.77;4.40;;;29.40;39.00;;;;;;4990014;28;20140;-64
2022/06/16 08:47:08;;;;;;;29.13;4.93;;;29.20;39.90;;;;;;4986597;28;20447;-63
2022/06/16 08:49:53;;;;;;;27.95;4.93;;;29.20;41.10;;;;;;4991910;28;20539;-64
2022/06/16 08:52:32;;;;;;;25.17;4.93;;;29.00;41.10;;;;;;5019036;28;20077;-64
2022/06/16 08:55:29;;;;;;;28.67;5.30;;;28.90;42.40;;;;;;5004715;28;20622;-63
2022/06/16 08:58:14;;;;;;;22.77;5.32;;;28.90;42.90;;;;;;4988166;28;20523;-63
2022/06/16 09:00:46;;;;;;;26.48;4.93;;;28.90;43.00;;;;;;4991471;28;20100;-65
2022/06/16 09:03:29;;;;;;;14.23;4.38;;;28.70;43.30;;;;;;5006434;28;20121;-64
2022/06/16 09:06:06;;;;;;;27.15;5.18;;;28.70;43.70;;;;;;5006004;28;20365;-64
2022/06/16 09:09:08;;;;;;;18.95;4.15;;;28.50;43.70;;;;;;5023660;28;20085;-64
2022/06/16 09:11:44;;;;;;;20.73;4.35;;;28.50;44.20;;;;;;5021214;28;20080;-64
2022/06/16 09:17:27;;;;;;;13.85;4.57;;;28.30;45.30;;;;;;5005074;28;20006;-63
2022/06/16 09:20:08;;;;;;;16.65;5.05;;;28.20;45.60;;;;;;5022327;28;20156;-63
2022/06/16 09:22:47;;;;;;;22.60;4.05;;;28.20;46.20;;;;;;5020152;28;20161;-63
2022/06/16 09:25:27;;;;;;;21.20;4.00;;;28.10;46.60;;;;;;5014588;28;20162;-64
2022/06/16 09:28:06;;;;;;;18.75;4.22;;;28.00;46.50;;;;;;4989257;28;20477;-64
2022/06/16 09:30:38;;;;;;;24.17;4.13;;;28.00;46.40;;;;;;5004214;28;20078;-65
2022/06/16 09:33:15;;;;;;;18.15;3.92;;;28.10;47.00;;;;;;5004625;28;20093;-64
2022/06/16 09:35:59;;;;;;;21.67;3.95;;;28.00;47.20;;;;;;4990180;28;20112;-65
2022/06/16 09:38:29;;;;;;;22.33;3.88;;;28.00;46.90;;;;;;5016095;28;20161;-65
2022/06/16 09:42:32;;;;;;;19.70;3.53;;;27.90;46.60;;;;;;5018632;28;20124;-63
2022/06/16 09:43:59;;;;;;;19.38;4.00;;;27.80;46.80;;;;;;4994627;28;20082;-64
2022/06/16 09:46:36;;;;;;;15.70;3.55;;;27.80;47.20;;;;;;5005456;28;20522;-62
2022/06/16 09:49:10;;;;;;;16.55;4.72;;;27.80;46.20;;;;;;5017362;28;20073;-63
2022/06/16 09:51:58;;;;;;;11.35;4.22;;;27.50;45.50;;;;;;5005320;28;20608;-64
2022/06/16 09:54:55;;;;;;;18.80;5.38;;;27.60;44.90;;;;;;5004959;28;20093;-63
2022/06/16 09:57:37;;;;;;;16.08;4.80;;;27.60;45.20;;;;;;4988309;28;20074;-63
2022/06/16 10:00:14;;;;;;;24.67;5.82;;;27.40;45.00;;;;;;5004135;28;20155;-64
2022/06/16 10:02:51;;;;;;;20.27;6.65;;;27.40;45.20;;;;;;5004549;28;20139;-63
2022/06/16 10:05:47;;;;;;;19.25;5.70;;;27.40;44.70;;;;;;5004917;28;20085;-64
2022/06/16 10:08:27;;;;;;;14.55;6.72;;;27.40;44.80;;;;;;5023482;28;20077;-65
2022/06/16 10:11:35;;;;;;;14.13;6.40;;;27.30;44.40;;;;;;4991145;28;20093;-64
2022/06/16 10:14:16;;;;;;;;;;;27.40;44.00;;;;;;4993312;28;20097;-65
2022/06/16 10:17:02;;;;;;;18.90;7.68;;;27.40;43.90;;;;;;4992747;28;19960;-64
2022/06/16 10:19:33;;;;;;;14.82;7.53;;;27.40;44.10;;;;;;5004766;28;20073;-64
2022/06/16 10:22:00;;;;;;;26.02;7.68;;;27.40;44.40;;;;;;5005048;28;20108;-64
2022/06/16 10:24:35;;;;;;;20.67;6.65;;;27.30;44.90;;;;;;4989939;28;20076;-64
2022/06/16 10:27:02;;;;;;;17.90;6.80;;;27.30;45.20;;;;;;5006623;28;20077;-64
2022/06/16 10:29:32;;;;;;;26.17;6.82;;;27.40;45.40;;;;;;5005229;28;20176;-65
2022/06/16 10:32:03;;;;;;;17.15;6.90;;;27.20;45.80;;;;;;5004608;28;20519;-63
2022/06/16 10:34:35;;;;;;;17.95;6.75;;;27.20;46.20;;;;;;5005440;28;20085;-64
2022/06/16 10:37:25;;;;;;;22.35;6.45;;;27.30;46.40;;;;;;5004098;28;20160;-65
2022/06/16 10:40:01;;;;;;;20.15;6.15;;;27.20;46.90;;;;;;5007658;28;20074;-63
2022/06/16 10:42:53;;;;;;;22.60;6.07;;;27.20;48.40;;;;;;5005675;28;20065;-65
2022/06/16 10:45:25;;;;;;;16.65;5.50;;;27.10;48.40;;;;;;4981900;28;20082;-63
2022/06/16 10:48:00;;;;;;;18.50;5.65;;;27.10;49.00;;;;;;4989905;28;20081;-64
2022/06/16 10:50:48;;;;;;;17.10;5.70;;;27.00;49.40;;;;;;4989235;28;20085;-63
2022/06/16 10:53:24;;;;;;;24.08;5.55;;;27.20;50.20;;;;;;4988580;28;20085;-63
2022/06/16 10:55:57;;;;;;;21.00;5.85;;;27.20;50.20;;;;;;5019105;28;20100;-64
2022/06/16 10:58:32;;;;;;;16.10;5.35;;;27.20;49.90;;;;;;5003256;28;20087;-64
2022/06/16 11:01:16;;;;;;;13.80;5.30;;;27.10;50.40;;;;;;5004108;28;20097;-63
2022/06/16 11:03:52;;;;;;;12.88;4.90;;;27.00;51.60;;;;;;5003909;28;20106;-64
2022/06/16 11:06:22;;;;;;;27.52;5.28;;;27.00;52.10;;;;;;5018237;28;20551;-64
2022/06/16 11:08:59;;;;;;;24.40;4.97;;;26.90;53.20;;;;;;5003749;28;20541;-64
2022/06/16 11:11:40;;;;;;;;;;;27.00;53.40;;;;;;5018101;28;20603;-63
2022/06/16 11:14:16;;;;;;;16.63;4.47;;;26.90;53.80;;;;;;4989712;28;20067;-65
2022/06/16 11:16:50;;;;;;;16.38;5.13;;;26.90;53.50;;;;;;5018865;28;20083;-65
2022/06/16 11:19:41;;;;;;;16.02;4.47;;;26.90;53.40;;;;;;5004052;28;20102;-65
2022/06/16 11:22:27;;;;;;;20.95;4.80;;;26.90;53.30;;;;;;5004081;28;20081;-63
2022/06/16 11:25:06;;;;;;;19.02;4.90;;;27.00;53.40;;;;;;5004283;28;20536;-65
2022/06/16 11:28:12;;;;;;;17.33;4.70;;;26.90;53.50;;;;;;4989042;28;20528;-65
2022/06/16 11:30:43;;;;;;;16.63;5.57;;;26.90;54.30;;;;;;4987832;28;20176;-64
2022/06/16 11:36:47;;;;;;;22.02;4.47;;;26.80;54.70;;;;;;4989812;28;20135;-64
2022/06/16 11:39:27;;;;;;;19.95;4.70;;;26.70;54.60;;;;;;5003772;28;20528;-65
2022/06/16 11:41:56;;;;;;;15.27;4.07;;;26.50;55.30;;;;;;5004351;28;20082;-64
2022/06/16 11:45:04;;;;;;;19.23;4.70;;;26.40;56.20;;;;;;5006852;28;20552;-64
2022/06/16 11:48:06;;;;;;;21.20;4.57;;;26.50;56.40;;;;;;4983709;28;20518;-65
2022/06/16 11:51:05;;;;;;;26.30;5.47;;;26.30;56.50;;;;;;5006874;28;20078;-64
2022/06/16 11:53:53;;;;;;;18.20;4.75;;;26.30;56.90;;;;;;4991202;28;20559;-64
2022/06/16 11:56:46;;;;;;;19.08;5.53;;;26.30;57.10;;;;;;4991524;28;20504;-64
2022/06/16 11:59:44;;;;;;;20.42;5.30;;;26.10;57.30;;;;;;5004513;28;20587;-64
2022/06/16 12:02:44;;;;;;;22.02;5.57;;;26.30;57.90;;;;;;5007575;28;20587;-64
2022/06/16 12:05:23;;;;;;;21.98;6.03;;;26.30;56.70;;;;;;5006023;28;20069;-64
2022/06/16 12:08:02;;;;;;;26.83;6.63;;;26.30;56.00;;;;;;4992356;28;20145;-64
2022/06/16 12:10:50;;;;;;;21.40;6.00;;;26.30;55.30;;;;;;4996686;28;20085;-64
2022/06/16 12:13:37;;;;;;;36.75;6.57;;;26.30;54.80;;;;;;5019003;28;20090;-64
2022/06/16 12:16:16;;;;;;;25.17;6.30;;;26.30;54.50;;;;;;5007810;28;20089;-64
2022/06/16 12:18:48;;;;;;;22.42;5.50;;;26.20;55.50;;;;;;5023745;28;20455;-64
2022/06/16 12:21:36;;;;;;;29.60;6.00;;;25.90;57.30;;;;;;5025391;28;20116;-64
2022/06/16 12:24:33;;;;;;;19.15;4.75;;;25.90;58.60;;;;;;4990833;28;20153;-65
2022/06/16 12:27:07;;;;;;;12.60;4.57;;;26.00;60.90;;;;;;5006763;28;20088;-64
2022/06/16 12:30:14;;;;;;;27.75;5.40;;;26.00;62.70;;;;;;5006431;28;20077;-64
2022/06/16 12:32:59;;;;;;;24.80;5.38;;;26.10;66.40;;;;;;5002841;28;20466;-65
2022/06/16 12:35:45;;;;;;;17.10;5.25;;;26.00;70.10;;;;;;4990805;28;20460;-64
2022/06/16 12:38:23;;;;;;;31.08;5.88;;;25.90;72.60;;;;;;5005440;28;20070;-64
2022/06/16 12:40:55;;;;;;;20.35;5.25;;;26.00;73.90;;;;;;5006398;28;20556;-65
2022/06/16 12:43:34;;;;;;;23.13;6.78;;;26.00;74.80;;;;;;5004978;28;20085;-64
2022/06/16 12:46:22;;;;;;;26.10;5.57;;;26.00;75.40;;;;;;5006006;28;20078;-64
2022/06/16 12:49:00;;;;;;;26.00;6.30;;;26.00;76.00;;;;;;4992441;28;20077;-64
2022/06/16 12:51:33;;;;;;;29.50;6.63;;;26.10;76.60;;;;;;4990053;28;20105;-66
2022/06/16 12:54:04;;;;;;;29.48;8.27;;;26.10;76.70;;;;;;5002867;28;20104;-64
2022/06/16 12:56:40;;;;;;;32.55;9.82;;;26.00;77.30;;;;;;5006356;28;20684;-64
2022/06/16 12:59:13;;;;;;;36.30;10.23;;;26.00;77.40;;;;;;5005816;28;20101;-64
2022/06/16 13:01:40;;;;;;;39.63;10.25;;;26.00;77.70;;;;;;4991525;28;20444;-65
2022/06/16 13:04:12;;;;;;;32.90;7.60;;;26.10;78.70;;;;;;5005994;28;20108;-65
2022/06/16 13:06:43;;;;;;;41.92;6.70;;;26.10;78.70;;;;;;5006165;28;20082;-64
2022/06/16 13:09:12;;;;;;;30.75;5.65;;;26.10;75.60;;;;;;5006335;28;20073;-66
2022/06/16 13:11:47;;;;;;;24.30;5.65;;;26.00;71.30;;;;;;5006282;28;20078;-65
2022/06/16 13:14:26;;;;;;;33.13;6.18;;;26.00;69.60;;;;;;5020841;28;20089;-64
2022/06/16 13:16:54;;;;;;;33.28;6.22;;;26.10;67.70;;;;;;5006743;28;20073;-65
2022/06/16 13:19:26;;;;;;;28.70;6.85;;;26.10;66.90;;;;;;4990345;28;20070;-64
2022/06/16 13:21:59;;;;;;;32.65;6.82;;;26.00;65.70;;;;;;5005668;28;20086;-63
2022/06/16 13:24:45;;;;;;;35.72;7.28;;;26.00;63.90;;;;;;5005950;28;20074;-64
2022/06/16 13:27:40;;;;;;;30.85;7.25;;;26.10;62.00;;;;;;5004529;28;20421;-64
2022/06/16 13:30:10;;;;;;;30.02;6.75;;;26.20;61.50;;;;;;4991032;28;20069;-64
2022/06/16 13:32:47;;;;;;;30.17;7.03;;;26.30;60.60;;;;;;5016204;28;20161;-62
2022/06/16 13:35:13;;;;;;;28.13;7.10;;;26.20;60.80;;;;;;4991768;28;20081;-66
2022/06/16 13:37:42;;;;;;;31.98;7.10;;;26.20;59.80;;;;;;4991262;28;20090;-64
2022/06/16 13:40:09;;;;;;;30.00;5.90;;;26.30;59.50;;;;;;4990686;28;20471;-64